Logo AVAMET
Benvolgut visitant, si us plau, ingressa Recuperar contrasenya

Bolulla

Dades diàries. Acumulats / Últims 30 dies disponibles

Data Temperatura (°C) Humitat rel. (%) Pressió rel. (hPa) Vent (km/h) Precipitació
Mínima Mitjana Màxima Amplitud
tèrmica
Mínima Mitjana Màxima Mínima Mitjana Màxima Predom. Mitjana Ràfega
màxima
Total
(mm)
Índex-n
Mínima Mitjana Màxima Mínima Mitjana Màxima n
0 a 1
P0 max
mm 5'
Dades mensuals acumulades fins l'últim dia disponible
05/2019 9,8 13,0 18,7 17,3 18,0 22,0 26,9 17,1 40 71 95 0 987 1.001   8,0 40,7 4,7
Dades anuals acumulades fins l'últim dia disponible
2019 3,2 9,0 18,7 13,1 10,7 17,5 26,9 23,7 24 65 97 0 1.009 1.032   8,4 79,6 120,0
Últims 30 dies disponibles
18-05-2019 10,9     14,2     22,2 11,3 72 84 92 0 980 987 O 6,6 37,0 3,3 0,39 0,50
14-05-2019 10,9     16,7     22,2 11,3 40 63 89 0 983 987 SO 10,4 37,0 0,0
13-05-2019 12,5     16,8     20,7 8,2 59 77 92 0 980 987 OSO 8,0 33,5 0,0
12-05-2019 13,9     18,1     20,9 7,0 54 71 89 0 983 987 SO 7,8 29,8 0,0
11-05-2019 18,7     22,8     26,9 8,2 49 58 77 0 980 987 S 9,1 40,7 0,0
10-05-2019 17,6     22,6     26,9 9,3 48 63 79 0 983 987 OSO 7,5 30,5 0,0
09-05-2019 17,6     22,0     25,8 8,2 49 60 79 0 962 987 OSO 10,0 38,9 0,0
08-05-2019 12,0     18,8     24,9 12,9 50 74 92 0 996 1.001 OSO 7,4 37,0 0,0
07-05-2019 13,7     17,0     21,8 8,1 70 84 94 0 990 1.001 SSO 5,7 25,9 0,0
06-05-2019 10,0     14,6     18,8 8,8 68 84 93 0 998 1.001 SO 7,3 24,1 0,0
05-05-2019 11,1     14,9     19,6 8,5 45 67 90 1.001 1.001 1.001 SSO 8,8 31,6 0,0
04-05-2019 9,8     14,0     18,0 8,2 53 73 92 0 991 1.001 SO 8,6 29,6 0,0
03-05-2019 11,0     15,0     20,5 9,5 47 67 91 0 990 1.001 SSO 8,1 31,6 0,8
02-05-2019 12,8     16,6     21,4 8,6 41 63 76 0 998 1.001 SSO 8,7 33,3 0,0
01-05-2019 12,3     15,5     19,5 7,2 49 76 95 0 998 1.001 OSO 6,2 25,9 0,6 0,20
30-04-2019 12,6     15,3     18,6 6,0 69 84 93 0 998 1.001 SSO 5,3 24,4 0,0
29-04-2019 10,7     14,3     18,8 8,1 58 76 90 0 998 1.001 SO 7,6 25,9 0,0
28-04-2019 11,2     15,8     20,8 9,6 42 64 86 0 991 1.001 OSO 7,7 25,9 0,0
27-04-2019 10,1     15,6     20,3 10,2 44 67 87 0 997 1.001 SO 6,6 25,9 0,0
26-04-2019 10,5     15,6     19,9 9,4 39 54 74 1.001 1.001 1.001 SSO 8,5 55,5 0,0
25-04-2019 11,3     15,4     20,2 8,9 51 76 94 0 998 1.001 OSO 6,1 25,9 0,0
24-04-2019 8,3     13,9     17,6 9,3 50 65 91 1.001 1.001 1.001 SO 10,2 38,9 0,0
23-04-2019 10,6     14,5     19,8 9,2 54 79 92 0 998 1.001 OSO 7,4 35,9 0,0
22-04-2019 11,9     13,4     15,0 3,1 72 82 91 0 978 1.001 ONO 8,0 79,6 15,8
20-04-2019 13,2     14,0     15,0 1,8 79 87 92 1.001 1.001 1.001 NE 17,9 79,6 15,4 0,54 0,80
19-04-2019 11,9     13,6     15,0 3,1 84 91 96 0 987 1.001 SSO 5,9 41,3 17,7 0,10
18-04-2019 14,1     15,1     17,3 3,2 71 78 88 0 991 1.001 ESE 10,0 50,0 0,1
17-04-2019 12,4     15,7     20,9 8,5 53 73 88 0 998 1.001 SE 8,1 33,5 0,0
16-04-2019 11,6     15,3     20,1 8,5 60 81 96 0 997 1.001 SSO 6,7 37,0 0,0
15-04-2019 14,2     18,5     22,2 8,0 49 64 92 0 994 1.001 SSO 6,9 25,9 0,0
Últims 13 mesos disponibles
03/2019 6,8 9,0 12,2 13,4 12,2 18,0 26,4 19,6 40 61 85 991 1.014 1.028 O 8,2 56,1 44,0
02/2019 4,1 7,2 10,7 11,7 11,8 16,5 20,7 16,6 39 62 80 996 1.023 1.031 O 8,4 72,9 0,3
01/2019 3,2 7,1 11,3 10,5 10,7 14,9 19,7 16,5 43 64 85 1.003 1.017 1.029 ONO 8,7 75,9 15,7
12/2018 6,4 8,8 11,8 12,4 12,4 17,3 21,2 14,8 51 72 89 1.008 1.023 1.030 ONO 7,0 68,5 43,1
11/2018 7,5 11,0 16,9 14,0 13,4 17,6 21,8 14,3 56 73 89 999 1.014 1.021 O 7,5 63,3 146,0
10/2018 8,2 14,6 18,0 17,8 14,6 21,9 26,2 18,0 47 74 84 998 1.013 1.024 7,8 70,3 107,8
09/2018 14,6 19,9 22,8 23,2 23,6 27,5 31,3 16,7 65 77 86 1.011 1.018 1.026 7,3 48,1 102,1
08/2018 19,6 22,1 25,6 25,8 25,1 30,1 35,3 15,7 48 70 89 1.012 1.015 1.020 7,2 39,6 19,8
07/2018 18,3 21,4 27,2 26,3 28,6 30,4 33,5 15,2 44 63 78 988 997 1.014 8,7 61,8 0,0
06/2018 12,6 17,7 21,3 22,1 23,0 26,4 30,4 17,8 54 66 78 984 1.011 1.020 8,1 54,2 35,4
05/2018 8,6 13,5 17,9 17,8 16,9 22,4 26,9 18,3 49 70 85 1.009 1.013 1.017 7,5 44,4 6,2
04/2018 7,6 12,2 19,0 16,0 11,9 19,9 23,8 16,2 47 62 84 996 1.012 1.023 9,1 85,1 28,4
03/2018 4,9 9,5 13,8 13,3 11,5 17,4 23,9 19,0 41 60 87 993 1.007 1.021 9,4 83,4 18,9
Tots els anys disponibles
2018 2,8 13,6 27,2 17,3 7,4 21,5 35,3 32,5 41 69 90 984 1.013 1.032 OSO 8,0 85,1 705,8
2017 3,8 14,1 26,7 18,4 8,4 22,9 34,6 30,8 41 68 89 998 1.017 1.033 OSO 2,6 96,0 223,0
2016
Temperatura (°C)
Humitat relativa (%)
Velocitat del vent i ràfega màxima (km/h)
Direcció del vent (°)
Pressió (hPa)
Precipitació (mm)
Nota sobre les dades: s'avisa a l'usuari de la provisionalitat i no oficialitat d'aquestes dades
Logo AVAMET blanc
Web allotjada a Sollutia
Llicència de Creative CommonsLa web d'AVAMET i els seus continguts estan subjectes a una llicència de
Reconeixement - No Comercial - Compartir igual
Properes estacions: Altea - Club Nàutic d'Altea (Soci), Ontinyent - El Pilar (Soci), Ares del Maestrat (Ajuntament Soci), Catadau - L'Altet (Inforatge)     - - - - -      Últimes estacions: Jacarilla - centro (MeteOrihuela), Elx - Maitino/Vallverda/Velarde/Matola/Ferriol (Soci TiempoElche.com), Orihuela - Playa Flamenca (MeteOrihuela), Puçol - Ciutat Jardí (Soci), Alzira - La Casella (Soci) - - -